Time;durP1;ratioP1;P1;durP2;ratioP2;P2;SDS_P1;SDS_P2;PMS_P1;PMS_P2;Temp;Humidity;BMP_temperature;BMP_pressure;BME280_temperature;BME280_humidity;BME280_pressure;Samples;Min_cycle;Max_cycle;Signal;HPM_P1;HPM_P2
2023/05/29 00:02:25;;;;;;;10.98;6.85;;;;;;;14.39;66.11;96242.91;5079681;28;20536;-74
2023/05/29 00:04:51;;;;;;;12.65;6.88;;;;;;;14.36;66.60;96241.69;5079836;28;20047;-73
2023/05/29 00:07:18;;;;;;;11.75;7.40;;;;;;;14.31;66.34;96241.91;5077756;28;20040;-74
2023/05/29 00:09:44;;;;;;;14.57;7.25;;;;;;;14.27;67.45;96238.25;5080182;28;20048;-74
2023/05/29 00:12:11;;;;;;;13.52;7.13;;;;;;;14.22;67.29;96241.22;5074601;28;20254;-74
2023/05/29 00:14:39;;;;;;;10.43;6.45;;;;;;;14.17;67.70;96246.16;5077417;28;20066;-74
2023/05/29 00:17:06;;;;;;;11.75;6.30;;;;;;;14.13;67.72;96240.56;5072815;28;20094;-74
2023/05/29 00:19:32;;;;;;;9.45;6.38;;;;;;;14.08;67.12;96251.72;5082126;28;20051;-74
2023/05/29 00:21:59;;;;;;;12.35;6.95;;;;;;;14.05;67.80;96244.22;5070024;28;20048;-73
2023/05/29 00:24:26;;;;;;;11.15;6.30;;;;;;;13.99;67.92;96251.03;5072825;28;20055;-74
2023/05/29 00:26:52;;;;;;;11.63;7.07;;;;;;;13.94;68.36;96245.78;5080724;28;20411;-74
2023/05/29 00:29:21;;;;;;;11.30;6.60;;;;;;;13.96;69.90;96238.06;5078645;28;20052;-74
2023/05/29 00:31:48;;;;;;;12.20;7.40;;;;;;;13.95;68.74;96240.00;5078598;28;20430;-73
2023/05/29 00:34:15;;;;;;;12.23;7.20;;;;;;;13.92;68.20;96240.66;5078559;28;20047;-73
2023/05/29 00:36:41;;;;;;;12.82;7.00;;;;;;;13.90;67.88;96242.16;5077880;28;20048;-74
2023/05/29 00:39:09;;;;;;;9.95;6.28;;;;;;;13.87;67.98;96240.09;5076835;28;20399;-73
2023/05/29 00:41:35;;;;;;;10.63;6.45;;;;;;;13.80;67.99;96243.41;5079871;28;20166;-74
2023/05/29 00:44:02;;;;;;;10.07;6.70;;;;;;;13.69;68.07;96242.28;5076301;28;20050;-75
2023/05/29 00:46:29;;;;;;;13.80;7.07;;;;;;;13.62;68.68;96234.59;5077163;28;20048;-74
2023/05/29 00:48:57;;;;;;;13.82;7.68;;;;;;;13.57;68.93;96240.28;5080741;28;20040;-73
2023/05/29 00:51:25;;;;;;;11.23;6.43;;;;;;;13.54;69.25;96241.00;5074280;28;20448;-73
2023/05/29 00:53:53;;;;;;;12.88;7.13;;;;;;;13.52;69.78;96244.06;5079443;28;20052;-73
2023/05/29 00:56:21;;;;;;;14.30;7.40;;;;;;;13.49;70.26;96243.94;5077348;28;20090;-73
2023/05/29 00:58:50;;;;;;;13.32;6.85;;;;;;;13.47;70.30;96240.75;5079576;28;20052;-73
2023/05/29 01:01:17;;;;;;;10.75;6.70;;;;;;;13.46;70.31;96244.59;5093229;28;20048;-74
2023/05/29 01:03:45;;;;;;;11.68;7.35;;;;;;;13.47;70.15;96238.03;5073370;28;20053;-73
2023/05/29 01:06:12;;;;;;;16.48;7.82;;;;;;;13.49;70.86;96243.94;5074439;28;20527;-74
2023/05/29 01:08:39;;;;;;;14.68;7.45;;;;;;;13.46;71.22;96244.59;5082615;28;20044;-75
2023/05/29 01:11:13;;;;;;;14.00;7.32;;;;;;;13.42;70.52;96249.19;5087206;28;20045;-74
2023/05/29 01:13:43;;;;;;;12.60;7.38;;;;;;;13.41;70.71;96247.56;5079217;28;20051;-74
2023/05/29 01:16:17;;;;;;;12.25;7.55;;;;;;;13.39;71.91;96247.91;5075090;28;20037;-74
2023/05/29 01:18:52;;;;;;;15.30;7.43;;;;;;;13.38;72.02;96246.31;5071447;28;20140;-74
2023/05/29 01:21:28;;;;;;;11.82;7.38;;;;;;;13.38;71.81;96251.00;5069359;28;20673;-73
2023/05/29 01:24:04;;;;;;;12.48;7.38;;;;;;;13.36;71.88;96239.56;5060526;28;20142;-74
2023/05/29 01:26:52;;;;;;;16.27;7.97;;;;;;;13.32;71.17;96244.94;5065133;28;20040;-74
2023/05/29 01:29:20;;;;;;;12.23;7.60;;;;;;;13.27;71.60;96243.22;5068284;28;20106;-74
2023/05/29 01:31:48;;;;;;;13.15;7.97;;;;;;;13.24;72.18;96238.41;5069978;28;20094;-74
2023/05/29 01:34:15;;;;;;;12.52;7.18;;;;;;;13.22;72.24;96246.16;5070264;28;20037;-75
2023/05/29 01:36:41;;;;;;;12.23;7.10;;;;;;;13.21;72.34;96244.56;5070535;28;20048;-75
2023/05/29 01:39:09;;;;;;;13.85;7.32;;;;;;;13.19;72.26;96235.84;5069751;28;20056;-74
2023/05/29 01:41:36;;;;;;;14.60;7.85;;;;;;;13.17;72.74;96240.88;5062506;28;20078;-75
2023/05/29 01:44:08;;;;;;;11.73;7.07;;;;;;;13.17;72.74;96249.06;5070255;28;20503;-75
2023/05/29 01:46:35;;;;;;;14.93;7.85;;;;;;;13.12;72.49;96245.75;5071472;28;20119;-75
2023/05/29 01:49:02;;;;;;;14.82;7.32;;;;;;;13.06;72.81;96245.97;5074110;28;20496;-76
2023/05/29 01:51:29;;;;;;;13.05;8.15;;;;;;;13.05;73.45;96246.31;5068708;28;20064;-75
2023/05/29 01:53:55;;;;;;;12.82;7.35;;;;;;;13.02;73.84;96241.50;5068883;28;20040;-74
2023/05/29 01:56:22;;;;;;;14.13;8.25;;;;;;;12.95;73.53;96246.72;5069276;28;20059;-74
2023/05/29 01:58:50;;;;;;;14.30;7.88;;;;;;;12.89;73.46;96242.56;5069371;28;20056;-75
2023/05/29 02:01:18;;;;;;;11.65;7.18;;;;;;;12.87;73.33;96247.59;5067228;28;20032;-74
2023/05/29 02:03:44;;;;;;;15.80;7.35;;;;;;;12.87;73.42;96233.94;5069481;28;20044;-74
2023/05/29 02:06:11;;;;;;;15.35;7.93;;;;;;;12.88;73.73;96243.72;5068270;28;20075;-74
2023/05/29 02:08:37;;;;;;;12.70;6.97;;;;;;;12.89;73.81;96248.03;5069324;28;20137;-74
2023/05/29 02:11:04;;;;;;;13.98;7.70;;;;;;;12.90;73.79;96238.72;5069538;28;20048;-74
2023/05/29 02:13:30;;;;;;;14.52;7.20;;;;;;;12.88;74.03;96246.44;5063042;28;20052;-74
2023/05/29 02:15:56;;;;;;;14.25;7.72;;;;;;;12.87;74.02;96244.84;5069718;28;20045;-74
2023/05/29 02:18:25;;;;;;;11.10;7.22;;;;;;;12.86;73.46;96237.81;5068540;28;20052;-74
2023/05/29 02:20:51;;;;;;;12.82;7.05;;;;;;;12.84;73.51;96242.78;5068487;28;20139;-74
2023/05/29 02:23:19;;;;;;;12.30;7.07;;;;;;;12.85;73.10;96241.66;5068916;28;20675;-74
2023/05/29 02:25:45;;;;;;;15.55;8.27;;;;;;;12.83;73.08;96243.91;5068002;28;20048;-73
2023/05/29 02:28:12;;;;;;;14.57;7.47;;;;;;;12.79;73.53;96241.88;5068997;28;20059;-73
2023/05/29 02:30:38;;;;;;;12.60;7.50;;;;;;;12.76;73.43;96245.25;5069017;28;20053;-74
2023/05/29 02:33:06;;;;;;;12.13;6.95;;;;;;;12.72;73.17;96241.59;5067675;28;20659;-73
2023/05/29 02:35:34;;;;;;;13.77;7.20;;;;;;;12.70;73.90;96249.34;5068759;28;20040;-74
2023/05/29 02:38:01;;;;;;;13.05;6.97;;;;;;;12.69;74.15;96244.22;5069093;28;20045;-74
2023/05/29 02:40:27;;;;;;;10.80;6.43;;;;;;;12.65;74.24;96246.81;5068372;28;20036;-74
2023/05/29 02:42:53;;;;;;;12.90;7.47;;;;;;;12.63;74.28;96251.78;5069377;28;20059;-73
2023/05/29 02:45:20;;;;;;;14.25;7.55;;;;;;;12.61;74.25;96247.81;5068795;28;20040;-74
2023/05/29 02:47:46;;;;;;;14.82;7.40;;;;;;;12.57;74.43;96244.94;5082865;28;20040;-74
2023/05/29 02:50:14;;;;;;;11.68;6.97;;;;;;;12.54;74.37;96248.34;5063482;28;20045;-74
2023/05/29 02:52:42;;;;;;;12.35;7.00;;;;;;;12.51;74.49;96251.72;5067043;28;20074;-74
2023/05/29 02:55:09;;;;;;;13.30;7.43;;;;;;;12.49;74.52;96251.28;5071040;28;20044;-74
2023/05/29 02:57:35;;;;;;;14.80;7.30;;;;;;;12.49;74.85;96254.00;5070661;28;20046;-74
2023/05/29 03:00:02;;;;;;;12.13;6.78;;;;;;;12.48;75.01;96249.69;5076471;28;20462;-75
2023/05/29 03:02:28;;;;;;;14.40;7.13;;;;;;;12.45;74.50;96255.78;5067577;28;20040;-74
2023/05/29 03:04:55;;;;;;;12.68;7.43;;;;;;;12.44;74.37;96251.47;5068854;28;20048;-74
2023/05/29 03:07:21;;;;;;;12.02;7.07;;;;;;;12.42;74.41;96256.44;5068653;28;20053;-74
2023/05/29 03:09:50;;;;;;;14.18;7.78;;;;;;;12.42;74.87;96248.25;5069144;28;20570;-74
2023/05/29 03:12:18;;;;;;;12.10;6.90;;;;;;;12.41;75.12;96246.66;5068140;28;20052;-74
2023/05/29 03:14:45;;;;;;;14.75;6.93;;;;;;;12.42;75.17;96248.25;5075039;28;20048;-74
2023/05/29 03:17:12;;;;;;;13.80;6.45;;;;;;;12.39;75.32;96254.41;5074422;28;20044;-74
2023/05/29 03:19:38;;;;;;;12.02;6.32;;;;;;;12.37;75.27;96248.44;5065439;28;20106;-74
2023/05/29 03:22:05;;;;;;;11.88;6.95;;;;;;;12.36;75.43;96246.84;5071753;28;20044;-74
2023/05/29 03:24:34;;;;;;;12.13;6.97;;;;;;;12.35;75.89;96248.00;5085497;28;20092;-74
2023/05/29 03:27:03;;;;;;;14.95;7.20;;;;;;;12.36;75.77;96253.09;5077930;28;20067;-74
2023/05/29 03:29:30;;;;;;;12.45;7.15;;;;;;;12.33;75.53;96253.00;5077403;28;20060;-74
2023/05/29 03:31:56;;;;;;;13.05;6.90;;;;;;;12.28;75.25;96253.97;5076539;28;20044;-74
2023/05/29 03:34:23;;;;;;;11.70;6.63;;;;;;;12.23;74.86;96254.97;5074598;28;20053;-74
2023/05/29 03:36:49;;;;;;;13.10;7.07;;;;;;;12.17;75.16;96253.56;5082832;28;20036;-73
2023/05/29 03:39:16;;;;;;;11.50;6.72;;;;;;;12.12;75.00;96263.88;5082706;28;20458;-74
2023/05/29 03:41:42;;;;;;;13.20;6.80;;;;;;;12.08;75.98;96261.00;5082417;28;20044;-74
2023/05/29 03:44:10;;;;;;;13.23;7.32;;;;;;;12.08;76.40;96263.72;5077885;28;20048;-74
2023/05/29 03:46:37;;;;;;;12.73;7.03;;;;;;;12.12;76.96;96264.69;5074249;28;20040;-74
2023/05/29 03:49:03;;;;;;;11.73;6.45;;;;;;;12.12;76.77;96267.41;5075146;28;20055;-75
2023/05/29 03:51:30;;;;;;;11.73;6.90;;;;;;;12.13;77.12;96269.00;5074412;28;20048;-74
2023/05/29 03:53:57;;;;;;;17.38;7.90;;;;;;;12.16;77.43;96270.25;5071432;28;20424;-73
2023/05/29 03:56:23;;;;;;;17.00;7.57;;;;;;;12.15;77.26;96272.19;5073221;28;20051;-73
2023/05/29 03:58:50;;;;;;;10.45;6.38;;;;;;;12.15;76.93;96272.19;5073777;28;20052;-73
2023/05/29 04:01:18;;;;;;;14.10;7.45;;;;;;;12.15;76.54;96272.19;5074792;28;20040;-73
2023/05/29 04:03:46;;;;;;;12.73;7.28;;;;;;;12.14;76.18;96270.59;5074845;28;20040;-73
2023/05/29 04:06:12;;;;;;;12.95;6.57;;;;;;;12.15;76.19;96280.38;5070614;28;20492;-74
2023/05/29 04:08:39;;;;;;;11.43;6.70;;;;;;;12.15;76.12;96274.91;5073320;28;20049;-74
2023/05/29 04:11:06;;;;;;;12.05;6.80;;;;;;;12.16;76.54;96282.00;5074778;28;20072;-73
2023/05/29 04:13:32;;;;;;;12.15;6.57;;;;;;;12.18;76.72;96282.47;5074643;28;20051;-75
2023/05/29 04:15:59;;;;;;;13.75;6.78;;;;;;;12.16;76.81;96287.47;5074960;28;20045;-74
2023/05/29 04:18:27;;;;;;;13.23;6.90;;;;;;;12.12;76.72;96291.19;5071243;28;20044;-73
2023/05/29 04:20:54;;;;;;;12.30;6.82;;;;;;;12.11;77.04;96287.66;5073059;28;20102;-74
2023/05/29 04:23:21;;;;;;;12.60;6.85;;;;;;;12.16;77.33;96292.09;5073945;28;20087;-73
2023/05/29 04:25:50;;;;;;;11.40;6.40;;;;;;;12.21;77.48;96292.72;5071033;28;20052;-73
2023/05/29 04:28:17;;;;;;;11.73;6.80;;;;;;;12.25;76.96;96296.38;5070993;28;20059;-74
2023/05/29 04:30:43;;;;;;;11.38;6.43;;;;;;;12.31;77.30;96298.91;5064761;28;20044;-74
2023/05/29 04:33:12;;;;;;;11.50;6.13;;;;;;;12.38;77.16;96299.22;5069824;28;20048;-74
2023/05/29 04:35:42;;;;;;;12.63;6.82;;;;;;;12.42;77.55;96305.59;5070270;28;20834;-74
2023/05/29 04:38:09;;;;;;;11.55;6.50;;;;;;;12.48;76.68;96299.63;5071382;28;20120;-73
2023/05/29 04:40:37;;;;;;;11.02;6.68;;;;;;;12.50;76.66;96291.09;5070103;28;20044;-73
2023/05/29 04:43:05;;;;;;;10.63;6.43;;;;;;;12.50;77.21;96297.38;5070385;28;20067;-74
2023/05/29 04:45:31;;;;;;;12.30;6.60;;;;;;;12.51;77.19;96300.88;5071249;28;20180;-74
2023/05/29 04:47:58;;;;;;;10.10;6.45;;;;;;;12.52;77.61;96302.47;5070985;28;20048;-73
2023/05/29 04:50:25;;;;;;;11.55;6.43;;;;;;;12.54;77.88;96303.78;5070267;28;20054;-74
2023/05/29 04:52:52;;;;;;;10.93;6.75;;;;;;;12.57;77.48;96301.50;5070755;28;20052;-74
2023/05/29 04:55:19;;;;;;;11.95;6.90;;;;;;;12.61;77.51;96303.22;5070126;28;20044;-74
2023/05/29 04:57:45;;;;;;;11.95;6.78;;;;;;;12.64;77.10;96302.59;5072091;28;20048;-74
2023/05/29 05:00:14;;;;;;;12.40;6.55;;;;;;;12.70;77.25;96305.91;5069987;28;20040;-74
2023/05/29 05:02:42;;;;;;;11.20;6.57;;;;;;;12.77;77.41;96303.44;5071221;28;20086;-74
2023/05/29 05:05:09;;;;;;;10.65;6.53;;;;;;;12.87;77.48;96310.44;5066666;28;20040;-74
2023/05/29 05:07:35;;;;;;;12.05;6.68;;;;;;;12.92;77.60;96302.03;5070275;28;20036;-73
2023/05/29 05:10:03;;;;;;;15.13;6.88;;;;;;;12.98;77.57;96306.97;5070212;28;20488;-75
2023/05/29 05:12:30;;;;;;;13.55;5.57;;;;;;;13.06;76.98;96302.56;5071045;28;20051;-73
2023/05/29 05:14:57;;;;;;;12.00;6.60;;;;;;;13.08;77.11;96300.28;5060745;28;20465;-74
2023/05/29 05:17:23;;;;;;;10.18;5.68;;;;;;;13.20;76.90;96308.53;5079150;28;20048;-74
2023/05/29 05:19:52;;;;;;;9.90;6.07;;;;;;;13.29;76.94;96306.56;5070162;28;20514;-73
2023/05/29 05:22:18;;;;;;;10.27;5.40;;;;;;;13.38;76.78;96308.44;5070121;28;20063;-73
2023/05/29 05:24:45;;;;;;;15.75;5.60;;;;;;;13.42;75.94;96314.81;5061841;28;20550;-73
2023/05/29 05:27:12;;;;;;;10.68;5.55;;;;;;;13.50;74.33;96311.19;5069061;28;20048;-74
2023/05/29 05:29:39;;;;;;;11.18;5.30;;;;;;;13.61;74.41;96322.50;5074977;28;20063;-74
2023/05/29 05:32:06;;;;;;;9.48;5.57;;;;;;;13.71;75.17;96320.13;5072715;28;20056;-74
2023/05/29 05:34:33;;;;;;;9.90;5.90;;;;;;;13.76;74.91;96330.06;5070420;28;20052;-73
2023/05/29 05:36:59;;;;;;;9.55;5.30;;;;;;;13.83;74.02;96320.19;5067025;28;20060;-73
2023/05/29 05:39:26;;;;;;;11.25;6.20;;;;;;;13.85;71.75;96328.03;5069330;28;20059;-74
2023/05/29 05:41:52;;;;;;;8.13;4.70;;;;;;;14.01;69.92;96328.19;5069529;28;20572;-74
2023/05/29 05:44:20;;;;;;;7.32;4.53;;;;;;;14.12;70.11;96332.06;5069905;28;20045;-73
2023/05/29 05:46:47;;;;;;;9.57;4.50;;;;;;;14.21;69.24;96335.50;5069932;28;20545;-74
2023/05/29 05:49:13;;;;;;;8.63;4.70;;;;;;;14.29;69.49;96326.34;5065601;28;20052;-74
2023/05/29 05:51:40;;;;;;;8.75;4.55;;;;;;;14.35;69.94;96330.50;5086152;28;20075;-74
2023/05/29 05:54:06;;;;;;;8.82;4.82;;;;;;;14.39;69.78;96335.25;5070407;28;20037;-75
2023/05/29 05:56:33;;;;;;;12.30;5.47;;;;;;;14.49;69.00;96334.84;5072109;28;20048;-74
2023/05/29 05:59:00;;;;;;;9.15;5.18;;;;;;;14.57;68.67;96339.41;5080795;28;20044;-74
2023/05/29 06:01:28;;;;;;;9.02;5.18;;;;;;;14.67;66.97;96336.19;5071905;28;20112;-74
2023/05/29 06:03:54;;;;;;;9.18;4.47;;;;;;;14.76;67.23;96339.59;5072183;28;20291;-74
2023/05/29 06:06:21;;;;;;;9.82;5.10;;;;;;;14.85;67.13;96337.53;5071648;28;20036;-74
2023/05/29 06:08:48;;;;;;;8.52;4.55;;;;;;;14.97;66.43;96344.13;5066976;28;20046;-75
2023/05/29 06:11:14;;;;;;;8.50;4.43;;;;;;;15.06;65.57;96342.06;5071626;28;20040;-74
2023/05/29 06:13:41;;;;;;;8.25;4.70;;;;;;;15.15;65.03;96337.22;5072131;28;20090;-74
2023/05/29 06:16:07;;;;;;;10.20;4.82;;;;;;;15.23;64.94;96333.53;5075401;28;20040;-74
2023/05/29 06:18:35;;;;;;;9.07;4.50;;;;;;;15.31;64.81;96337.28;5076658;28;20048;-74
2023/05/29 06:21:02;;;;;;;8.10;4.32;;;;;;;15.34;64.75;96342.88;5069462;28;20044;-74
2023/05/29 06:23:28;;;;;;;14.82;5.70;;;;;;;15.34;64.30;96342.06;5066578;28;20629;-74
2023/05/29 06:25:55;;;;;;;10.80;4.68;;;;;;;15.18;61.00;96344.75;5068816;28;20048;-73
2023/05/29 06:28:21;;;;;;;9.27;4.93;;;;;;;15.45;61.66;96350.59;5068998;28;20056;-74
2023/05/29 06:30:48;;;;;;;10.65;4.93;;;;;;;15.32;59.91;96350.66;5067844;28;20048;-74
2023/05/29 06:33:15;;;;;;;8.57;4.45;;;;;;;15.33;59.63;96352.25;5067845;28;20051;-74
2023/05/29 06:35:43;;;;;;;11.75;4.80;;;;;;;15.50;60.51;96359.38;5068894;28;20049;-73
2023/05/29 06:38:09;;;;;;;8.75;4.40;;;;;;;15.55;60.01;96352.84;5068873;28;20036;-74
2023/05/29 06:40:36;;;;;;;10.45;4.90;;;;;;;15.57;60.63;96356.06;5068665;28;20056;-74
2023/05/29 06:43:02;;;;;;;8.35;4.70;;;;;;;15.68;59.31;96364.59;5068414;28;20051;-73
2023/05/29 06:45:29;;;;;;;11.00;4.95;;;;;;;15.87;61.20;96371.03;5069163;28;20044;-74
2023/05/29 06:47:55;;;;;;;7.85;4.82;;;;;;;16.08;61.67;96364.50;5084655;28;20090;-74
2023/05/29 06:50:22;;;;;;;8.50;4.93;;;;;;;16.25;61.02;96366.91;5068489;28;20048;-74
2023/05/29 06:52:50;;;;;;;9.90;4.80;;;;;;;16.31;60.72;96372.94;5065960;28;20041;-74
2023/05/29 06:55:16;;;;;;;9.90;5.70;;;;;;;16.40;59.68;96377.09;5067232;28;20612;-74
2023/05/29 06:57:43;;;;;;;9.60;5.80;;;;;;;16.34;59.08;96372.22;5067572;28;20096;-74
2023/05/29 07:00:12;;;;;;;8.00;4.50;;;;;;;16.62;61.08;96377.63;5067994;28;20041;-74
2023/05/29 07:02:38;;;;;;;7.72;4.82;;;;;;;16.69;59.19;96378.56;5069291;28;20044;-74
2023/05/29 07:05:06;;;;;;;9.13;4.65;;;;;;;16.69;59.12;96377.78;5067889;28;20048;-73
2023/05/29 07:07:32;;;;;;;7.10;4.30;;;;;;;16.88;60.23;96380.63;5068196;28;20124;-74
2023/05/29 07:10:00;;;;;;;9.68;4.80;;;;;;;16.80;59.15;96372.56;5063697;28;20048;-74
2023/05/29 07:12:27;;;;;;;8.30;4.78;;;;;;;16.95;60.90;96378.03;5068785;28;20056;-74
2023/05/29 07:14:54;;;;;;;9.48;5.00;;;;;;;16.95;57.87;96385.47;5067532;28;20047;-74
2023/05/29 07:17:20;;;;;;;11.20;4.82;;;;;;;16.98;58.56;96390.28;5078841;28;20040;-74
2023/05/29 07:19:49;;;;;;;6.90;4.50;;;;;;;17.05;58.22;96386.88;5067609;28;20049;-74
2023/05/29 07:22:15;;;;;;;9.10;5.43;;;;;;;17.30;58.13;96388.22;5068246;28;20051;-74
2023/05/29 07:24:42;;;;;;;10.40;4.97;;;;;;;17.48;59.32;96386.63;5067774;28;20558;-74
2023/05/29 07:27:09;;;;;;;7.75;4.60;;;;;;;17.45;57.05;96392.88;5068230;28;20044;-75
2023/05/29 07:29:36;;;;;;;8.07;4.30;;;;;;;17.72;57.66;96384.75;5064055;28;20508;-74
2023/05/29 07:32:02;;;;;;;7.80;4.40;;;;;;;17.86;56.44;96389.78;5068463;28;20044;-75
2023/05/29 07:34:29;;;;;;;7.57;4.28;;;;;;;18.03;57.16;96389.31;5068473;28;20488;-74
2023/05/29 07:37:01;;;;;;;12.05;4.15;;;;;;;18.06;55.86;96393.28;5070825;28;20498;-75
2023/05/29 07:39:28;;;;;;;15.20;5.23;;;;;;;18.14;54.88;96395.81;5068175;28;20042;-74
2023/05/29 07:41:54;;;;;;;14.55;4.95;;;;;;;18.23;53.77;96392.84;5066722;28;20048;-74
2023/05/29 07:44:22;;;;;;;13.32;5.03;;;;;;;18.19;53.23;96389.22;5059581;28;20040;-74
2023/05/29 07:46:49;;;;;;;9.00;4.50;;;;;;;18.29;53.88;96396.09;5072486;28;20592;-74
2023/05/29 07:49:15;;;;;;;7.60;4.18;;;;;;;18.48;54.45;96390.53;5067330;28;20407;-74
2023/05/29 07:51:42;;;;;;;10.82;4.80;;;;;;;18.48;51.93;96394.06;5068918;28;20041;-74
2023/05/29 07:54:08;;;;;;;11.02;5.00;;;;;;;18.59;52.03;96398.97;5067893;28;20040;-74
2023/05/29 07:56:35;;;;;;;9.38;5.97;;;;;;;18.74;51.47;96400.81;5066943;28;20045;-73
2023/05/29 07:59:01;;;;;;;10.85;4.43;;;;;;;19.03;54.43;96400.09;5067356;28;20040;-77
2023/05/29 08:01:29;;;;;;;8.70;4.25;;;;;;;19.24;52.95;96391.31;5071450;28;20411;-74
2023/05/29 08:03:56;;;;;;;11.55;4.53;;;;;;;19.26;52.22;96388.19;5071563;28;20040;-74
2023/05/29 08:06:22;;;;;;;11.32;4.65;;;;;;;19.36;49.96;96387.53;5071532;28;20454;-74
2023/05/29 08:08:50;;;;;;;10.43;4.75;;;;;;;19.44;51.48;96392.00;5070121;28;20052;-74
2023/05/29 08:11:17;;;;;;;10.00;4.68;;;;;;;19.58;49.86;96387.84;5071664;28;20774;-73
2023/05/29 08:13:43;;;;;;;9.52;4.40;;;;;;;19.85;50.13;96385.81;5072004;28;20060;-74
2023/05/29 08:16:10;;;;;;;7.35;4.60;;;;;;;20.10;50.75;96386.88;5071103;28;20040;-74
2023/05/29 08:18:37;;;;;;;7.55;3.95;;;;;;;20.29;50.29;96394.16;5075997;28;20051;-74
2023/05/29 08:21:05;;;;;;;9.23;5.00;;;;;;;20.50;48.42;96391.63;5071164;28;20044;-75
2023/05/29 08:23:31;;;;;;;13.13;4.57;;;;;;;20.76;48.06;96395.41;5081920;28;20051;-74
2023/05/29 08:25:58;;;;;;;8.52;4.00;;;;;;;20.79;47.91;96395.44;5082064;28;20050;-73
2023/05/29 08:28:26;;;;;;;7.22;4.32;;;;;;;21.00;50.45;96389.28;5084638;28;20052;-74
2023/05/29 08:30:52;;;;;;;6.93;4.15;;;;;;;21.07;46.70;96389.31;5080311;28;20049;-74
2023/05/29 08:33:19;;;;;;;8.65;4.68;;;;;;;21.07;46.76;96382.97;5066110;28;20063;-75
2023/05/29 08:35:47;;;;;;;9.10;4.13;;;;;;;21.22;49.16;96389.41;5072352;28;20040;-74
2023/05/29 08:38:13;;;;;;;11.10;4.63;;;;;;;21.24;47.43;96398.13;5073452;28;20041;-74
2023/05/29 08:40:40;;;;;;;10.18;4.50;;;;;;;21.35;45.38;96396.22;5079290;28;20051;-74
2023/05/29 08:43:12;;;;;;;7.70;4.47;;;;;;;21.54;46.44;96387.63;5079182;28;20137;-74
2023/05/29 08:45:45;;;;;;;12.02;4.82;;;;;;;21.61;45.42;96390.44;5082896;28;20029;-74
2023/05/29 08:48:12;;;;;;;;;;;;;;;21.80;49.96;96386.56;5079003;28;20048;-74
2023/05/29 08:50:44;;;;;;;10.40;5.35;;;;;;;21.67;46.07;96392.84;5074004;28;20533;-74
2023/05/29 08:53:13;;;;;;;10.50;5.63;;;;;;;21.84;45.54;96397.66;5071926;28;20040;-73
2023/05/29 08:55:40;;;;;;;16.90;5.53;;;;;;;22.00;45.01;96394.56;5070804;28;20102;-74
2023/05/29 08:58:08;;;;;;;13.35;5.35;;;;;;;22.05;44.45;96394.97;5067841;28;20110;-74
2023/05/29 09:00:35;;;;;;;12.00;5.40;;;;;;;22.03;44.44;96389.03;5068558;28;20486;-74
2023/05/29 09:03:01;;;;;;;14.02;5.15;;;;;;;22.32;49.05;96402.97;5064840;28;20102;-75
2023/05/29 09:05:29;;;;;;;11.68;5.22;;;;;;;22.47;44.63;96393.50;5064121;28;20641;-74
2023/05/29 09:07:56;;;;;;;10.48;5.13;;;;;;;22.45;43.67;96398.66;5069905;28;20041;-74
2023/05/29 09:10:25;;;;;;;11.77;5.68;;;;;;;22.40;43.49;96396.28;5069622;28;20047;-74
2023/05/29 09:12:51;;;;;;;11.30;4.85;;;;;;;22.21;44.40;96393.84;5065679;28;20047;-74
2023/05/29 09:15:19;;;;;;;17.83;6.47;;;;;;;22.28;44.91;96389.09;5069854;28;20037;-74
2023/05/29 09:17:49;;;;;;;14.52;6.10;;;;;;;22.39;46.56;96386.34;5070070;28;20098;-74
2023/05/29 09:20:17;;;;;;;13.45;6.28;;;;;;;22.33;44.28;96390.69;5069024;28;20059;-74
2023/05/29 09:22:53;;;;;;;13.65;5.28;;;;;;;22.53;44.20;96393.91;5070759;28;20174;-74
2023/05/29 09:25:22;;;;;;;17.20;6.50;;;;;;;22.53;41.79;96394.69;5069704;28;20044;-74
2023/05/29 09:27:52;;;;;;;12.80;5.63;;;;;;;22.60;42.55;96399.44;5070358;28;20507;-74
2023/05/29 09:30:32;;;;;;;9.50;5.03;;;;;;;22.42;42.77;96396.66;5062950;28;20670;-74
2023/05/29 09:33:00;;;;;;;11.77;5.63;;;;;;;22.67;44.08;96394.69;5069885;28;20064;-74
2023/05/29 09:35:26;;;;;;;17.48;5.97;;;;;;;22.83;43.19;96385.19;5069412;28;20518;-74
2023/05/29 09:37:53;;;;;;;15.25;5.65;;;;;;;22.78;42.72;96397.47;5069997;28;20036;-74
2023/05/29 09:40:19;;;;;;;12.57;5.25;;;;;;;22.67;40.81;96397.47;5068627;28;20044;-74
2023/05/29 09:42:48;;;;;;;13.40;5.45;;;;;;;22.75;41.63;96397.47;5069213;28;20041;-73
2023/05/29 09:45:18;;;;;;;19.77;6.35;;;;;;;22.75;41.24;96400.25;5068400;28;20131;-73
2023/05/29 09:47:44;;;;;;;15.00;5.95;;;;;;;23.01;41.04;96388.75;5070067;28;20400;-74
2023/05/29 09:50:20;;;;;;;8.55;4.85;;;;;;;23.04;40.34;96396.31;5069028;28;20049;-74
2023/05/29 09:52:47;;;;;;;8.48;4.10;;;;;;;22.99;40.00;96393.13;5070986;28;20044;-74
2023/05/29 09:55:17;;;;;;;7.32;4.00;;;;;;;23.22;40.44;96384.38;5069279;28;20040;-75
2023/05/29 09:57:47;;;;;;;10.98;4.80;;;;;;;22.98;40.14;96392.34;5069344;28;20047;-74
2023/05/29 10:00:16;;;;;;;5.38;3.45;;;;;;;23.17;42.21;96389.13;5069758;28;20048;-75
2023/05/29 10:02:43;;;;;;;6.65;4.13;;;;;;;23.08;38.64;96390.75;5069162;28;20056;-74
2023/05/29 10:05:11;;;;;;;6.90;3.88;;;;;;;23.16;38.86;96390.31;5068541;28;20514;-74
2023/05/29 10:07:42;;;;;;;7.07;3.80;;;;;;;23.25;40.29;96389.94;5070231;28;20149;-74
2023/05/29 10:10:09;;;;;;;7.50;3.78;;;;;;;23.39;41.84;96391.91;5067798;28;20044;-74
2023/05/29 10:12:38;;;;;;;8.20;4.10;;;;;;;23.50;39.45;96397.41;5070258;28;20046;-74
2023/05/29 10:15:10;;;;;;;7.70;3.78;;;;;;;23.42;39.13;96385.50;5069503;28;20040;-74
2023/05/29 10:17:39;;;;;;;10.45;4.18;;;;;;;23.28;43.11;96388.31;5069850;28;20044;-74
2023/05/29 10:20:10;;;;;;;7.57;3.83;;;;;;;23.17;39.74;96382.78;5070845;28;20040;-75
2023/05/29 10:22:45;;;;;;;12.25;4.10;;;;;;;23.03;40.72;96378.06;5067522;28;20075;-73
2023/05/29 10:25:14;;;;;;;7.68;3.97;;;;;;;23.01;39.40;96397.09;5080023;28;20055;-74
2023/05/29 10:27:40;;;;;;;8.75;4.72;;;;;;;22.99;38.91;96388.38;5080884;28;20388;-74
2023/05/29 10:30:13;;;;;;;7.65;4.10;;;;;;;23.06;40.63;96380.03;5084580;28;20083;-74
2023/05/29 10:32:57;;;;;;;9.02;4.05;;;;;;;22.98;42.33;96397.13;5078419;28;20056;-74
2023/05/29 10:35:31;;;;;;;6.47;4.50;;;;;;;22.61;40.01;96395.50;5067709;28;20044;-75
2023/05/29 10:38:10;;;;;;;9.18;3.80;;;;;;;22.68;41.83;96398.25;5069409;28;20052;-74
2023/05/29 10:40:36;;;;;;;14.10;4.45;;;;;;;22.73;39.97;96397.09;5076811;28;20039;-74
2023/05/29 10:43:03;;;;;;;6.40;3.88;;;;;;;23.06;41.43;96387.56;5071851;28;20414;-75
2023/05/29 10:45:52;;;;;;;7.00;3.75;;;;;;;22.62;40.72;96384.00;5085175;28;20052;-74
2023/05/29 10:48:40;;;;;;;7.55;3.83;;;;;;;22.75;40.11;96394.69;5072725;28;20040;-74
2023/05/29 10:51:07;;;;;;;9.43;4.15;;;;;;;22.89;42.16;96380.84;5061618;28;20131;-74
2023/05/29 10:53:39;;;;;;;8.80;3.90;;;;;;;23.04;41.74;96385.19;5064553;28;20044;-74
2023/05/29 10:56:10;;;;;;;8.00;4.50;;;;;;;23.15;42.21;96380.41;5068613;28;20040;-75
2023/05/29 10:58:37;;;;;;;9.45;4.18;;;;;;;23.27;37.80;96384.75;5068296;28;20056;-74
2023/05/29 11:01:04;;;;;;;6.72;4.18;;;;;;;23.13;39.25;96379.25;5060883;28;20705;-74
2023/05/29 11:03:32;;;;;;;6.03;3.95;;;;;;;23.11;40.27;96379.63;5069346;28;20055;-74
2023/05/29 11:06:01;;;;;;;6.35;3.78;;;;;;;23.28;41.02;96377.22;5069097;28;20136;-74
2023/05/29 11:08:34;;;;;;;8.20;3.95;;;;;;;23.28;40.94;96371.66;5069991;28;20060;-75
2023/05/29 11:11:00;;;;;;;7.00;3.88;;;;;;;23.29;38.09;96387.16;5062650;28;20491;-75
2023/05/29 11:13:31;;;;;;;6.15;3.58;;;;;;;23.46;38.34;96377.19;5068824;28;20518;-75
2023/05/29 11:16:36;;;;;;;10.13;3.97;;;;;;;23.61;41.08;96373.16;5069473;28;20059;-74
2023/05/29 11:19:05;;;;;;;10.30;4.00;;;;;;;23.59;40.20;96381.09;5061052;28;20119;-76
2023/05/29 11:21:40;;;;;;;10.00;3.97;;;;;;;23.31;39.57;96387.53;5069097;28;20040;-75
2023/05/29 11:24:07;;;;;;;7.55;3.40;;;;;;;23.35;40.14;96377.22;5060308;28;20052;-76
2023/05/29 11:26:34;;;;;;;5.53;3.78;;;;;;;23.17;37.61;96378.03;5067729;28;20090;-75
2023/05/29 11:29:02;;;;;;;7.20;3.85;;;;;;;22.91;37.89;96373.69;5068483;28;20119;-75
2023/05/29 11:31:32;;;;;;;9.00;4.05;;;;;;;23.07;40.63;96373.28;5068161;28;20052;-73
2023/05/29 11:34:01;;;;;;;5.85;3.70;;;;;;;23.25;39.16;96372.47;5075744;28;20056;-75